sensor_id;sensor_type;location;lat;lon;timestamp;temperature;humidity
6948;DHT22;3513;47.664;9.162;2023-07-31T00:00:06;17.00;92.20
6948;DHT22;3513;47.664;9.162;2023-07-31T00:02:31;16.80;92.40
6948;DHT22;3513;47.664;9.162;2023-07-31T00:04:57;16.80;92.80
6948;DHT22;3513;47.664;9.162;2023-07-31T00:07:22;16.70;93.00
6948;DHT22;3513;47.664;9.162;2023-07-31T00:09:48;16.50;93.20
6948;DHT22;3513;47.664;9.162;2023-07-31T00:12:13;16.50;93.40
6948;DHT22;3513;47.664;9.162;2023-07-31T00:14:39;16.50;93.60
6948;DHT22;3513;47.664;9.162;2023-07-31T00:17:05;16.40;93.70
6948;DHT22;3513;47.664;9.162;2023-07-31T00:19:30;16.40;93.80
6948;DHT22;3513;47.664;9.162;2023-07-31T00:21:56;16.40;93.80
6948;DHT22;3513;47.664;9.162;2023-07-31T00:24:21;16.50;93.80
6948;DHT22;3513;47.664;9.162;2023-07-31T00:26:47;16.60;93.80
6948;DHT22;3513;47.664;9.162;2023-07-31T00:29:12;16.60;93.70
6948;DHT22;3513;47.664;9.162;2023-07-31T00:31:38;16.50;93.60
6948;DHT22;3513;47.664;9.162;2023-07-31T00:34:03;16.50;93.90
6948;DHT22;3513;47.664;9.162;2023-07-31T00:36:29;16.40;94.10
6948;DHT22;3513;47.664;9.162;2023-07-31T00:38:55;16.30;94.30
6948;DHT22;3513;47.664;9.162;2023-07-31T00:41:21;16.20;94.60
6948;DHT22;3513;47.664;9.162;2023-07-31T00:43:46;16.20;94.80
6948;DHT22;3513;47.664;9.162;2023-07-31T00:46:12;16.10;95.00
6948;DHT22;3513;47.664;9.162;2023-07-31T00:48:38;16.10;95.20
6948;DHT22;3513;47.664;9.162;2023-07-31T00:51:04;16.10;95.50
6948;DHT22;3513;47.664;9.162;2023-07-31T00:53:30;16.10;95.40
6948;DHT22;3513;47.664;9.162;2023-07-31T00:55:56;16.10;95.50
6948;DHT22;3513;47.664;9.162;2023-07-31T00:58:22;16.00;95.60
6948;DHT22;3513;47.664;9.162;2023-07-31T01:00:49;16.00;95.80
6948;DHT22;3513;47.664;9.162;2023-07-31T01:03:16;16.00;95.90
6948;DHT22;3513;47.664;9.162;2023-07-31T01:08:21;15.90;96.00
6948;DHT22;3513;47.664;9.162;2023-07-31T01:10:56;15.90;96.70
6948;DHT22;3513;47.664;9.162;2023-07-31T01:13:24;15.70;96.70
6948;DHT22;3513;47.664;9.162;2023-07-31T01:15:50;15.70;96.80
6948;DHT22;3513;47.664;9.162;2023-07-31T01:18:15;15.70;97.00
6948;DHT22;3513;47.664;9.162;2023-07-31T01:20:42;15.60;97.10
6948;DHT22;3513;47.664;9.162;2023-07-31T01:23:33;15.70;97.20
6948;DHT22;3513;47.664;9.162;2023-07-31T01:26:13;15.70;97.30
6948;DHT22;3513;47.664;9.162;2023-07-31T01:31:36;15.70;97.30
6948;DHT22;3513;47.664;9.162;2023-07-31T01:34:03;15.70;97.50
6948;DHT22;3513;47.664;9.162;2023-07-31T01:36:30;15.70;97.50
6948;DHT22;3513;47.664;9.162;2023-07-31T01:38:59;15.70;97.30
6948;DHT22;3513;47.664;9.162;2023-07-31T01:41:26;15.70;97.30
6948;DHT22;3513;47.664;9.162;2023-07-31T01:43:51;15.70;97.30
6948;DHT22;3513;47.664;9.162;2023-07-31T01:46:17;15.80;97.10
6948;DHT22;3513;47.664;9.162;2023-07-31T01:48:42;15.80;97.10
6948;DHT22;3513;47.664;9.162;2023-07-31T01:51:08;15.80;97.20
6948;DHT22;3513;47.664;9.162;2023-07-31T01:53:33;15.70;97.20
6948;DHT22;3513;47.664;9.162;2023-07-31T01:55:59;15.80;97.50
6948;DHT22;3513;47.664;9.162;2023-07-31T01:58:24;15.70;97.40
6948;DHT22;3513;47.664;9.162;2023-07-31T02:00:50;15.70;97.50
6948;DHT22;3513;47.664;9.162;2023-07-31T02:03:16;15.70;97.30
6948;DHT22;3513;47.664;9.162;2023-07-31T02:05:45;15.70;97.10
6948;DHT22;3513;47.664;9.162;2023-07-31T02:08:11;15.80;97.00
6948;DHT22;3513;47.664;9.162;2023-07-31T02:10:36;15.70;97.20
6948;DHT22;3513;47.664;9.162;2023-07-31T02:13:02;15.70;97.10
6948;DHT22;3513;47.664;9.162;2023-07-31T02:15:29;15.70;97.20
6948;DHT22;3513;47.664;9.162;2023-07-31T02:17:55;15.70;97.20
6948;DHT22;3513;47.664;9.162;2023-07-31T02:20:20;15.70;97.20
6948;DHT22;3513;47.664;9.162;2023-07-31T02:22:46;15.70;97.30
6948;DHT22;3513;47.664;9.162;2023-07-31T02:25:11;15.60;97.50
6948;DHT22;3513;47.664;9.162;2023-07-31T02:27:37;15.60;97.40
6948;DHT22;3513;47.664;9.162;2023-07-31T02:30:03;15.70;97.20
6948;DHT22;3513;47.664;9.162;2023-07-31T02:32:28;15.70;96.90
6948;DHT22;3513;47.664;9.162;2023-07-31T02:34:54;15.80;96.60
6948;DHT22;3513;47.664;9.162;2023-07-31T02:37:20;15.80;96.70
6948;DHT22;3513;47.664;9.162;2023-07-31T02:39:45;15.80;96.50
6948;DHT22;3513;47.664;9.162;2023-07-31T02:42:11;15.90;96.50
6948;DHT22;3513;47.664;9.162;2023-07-31T02:44:36;15.90;96.40
6948;DHT22;3513;47.664;9.162;2023-07-31T02:47:02;15.90;96.60
6948;DHT22;3513;47.664;9.162;2023-07-31T02:49:28;15.80;96.80
6948;DHT22;3513;47.664;9.162;2023-07-31T02:51:54;15.80;97.00
6948;DHT22;3513;47.664;9.162;2023-07-31T02:54:19;15.70;97.00
6948;DHT22;3513;47.664;9.162;2023-07-31T02:56:47;15.70;97.00
6948;DHT22;3513;47.664;9.162;2023-07-31T02:59:12;15.70;97.10
6948;DHT22;3513;47.664;9.162;2023-07-31T03:01:38;15.70;97.20
6948;DHT22;3513;47.664;9.162;2023-07-31T03:04:04;15.80;97.10
6948;DHT22;3513;47.664;9.162;2023-07-31T03:06:29;15.80;96.60
6948;DHT22;3513;47.664;9.162;2023-07-31T03:08:55;15.80;96.40
6948;DHT22;3513;47.664;9.162;2023-07-31T03:11:20;15.90;96.30
6948;DHT22;3513;47.664;9.162;2023-07-31T03:13:46;16.00;96.20
6948;DHT22;3513;47.664;9.162;2023-07-31T03:16:12;16.00;95.70
6948;DHT22;3513;47.664;9.162;2023-07-31T03:18:37;16.20;95.60
6948;DHT22;3513;47.664;9.162;2023-07-31T03:21:04;16.30;95.30
6948;DHT22;3513;47.664;9.162;2023-07-31T03:23:30;16.30;95.20
6948;DHT22;3513;47.664;9.162;2023-07-31T03:26:06;16.30;95.20
6948;DHT22;3513;47.664;9.162;2023-07-31T03:28:32;16.30;95.40
6948;DHT22;3513;47.664;9.162;2023-07-31T03:30:57;16.30;95.50
6948;DHT22;3513;47.664;9.162;2023-07-31T03:33:23;16.10;95.20
6948;DHT22;3513;47.664;9.162;2023-07-31T03:35:49;16.10;94.90
6948;DHT22;3513;47.664;9.162;2023-07-31T03:38:14;16.20;94.90
6948;DHT22;3513;47.664;9.162;2023-07-31T03:40:40;16.20;95.10
6948;DHT22;3513;47.664;9.162;2023-07-31T03:43:06;16.20;94.90
6948;DHT22;3513;47.664;9.162;2023-07-31T03:45:31;16.10;94.60
6948;DHT22;3513;47.664;9.162;2023-07-31T03:47:57;16.10;94.70
6948;DHT22;3513;47.664;9.162;2023-07-31T03:50:22;16.20;94.70
6948;DHT22;3513;47.664;9.162;2023-07-31T03:52:48;16.20;94.70
6948;DHT22;3513;47.664;9.162;2023-07-31T03:55:14;16.20;94.50
6948;DHT22;3513;47.664;9.162;2023-07-31T03:57:39;16.20;94.20
6948;DHT22;3513;47.664;9.162;2023-07-31T04:00:05;16.30;94.30
6948;DHT22;3513;47.664;9.162;2023-07-31T04:02:31;16.30;94.10
6948;DHT22;3513;47.664;9.162;2023-07-31T04:04:56;16.40;93.70
6948;DHT22;3513;47.664;9.162;2023-07-31T04:07:22;16.30;93.50
6948;DHT22;3513;47.664;9.162;2023-07-31T04:09:47;16.40;93.50
6948;DHT22;3513;47.664;9.162;2023-07-31T04:12:13;16.40;93.40
6948;DHT22;3513;47.664;9.162;2023-07-31T04:14:38;16.50;93.10
6948;DHT22;3513;47.664;9.162;2023-07-31T04:17:04;16.50;93.00
6948;DHT22;3513;47.664;9.162;2023-07-31T04:19:29;16.50;92.90
6948;DHT22;3513;47.664;9.162;2023-07-31T04:21:55;16.70;92.60
6948;DHT22;3513;47.664;9.162;2023-07-31T04:24:21;16.70;92.80
6948;DHT22;3513;47.664;9.162;2023-07-31T04:26:52;16.70;92.80
6948;DHT22;3513;47.664;9.162;2023-07-31T04:29:18;16.70;92.80
6948;DHT22;3513;47.664;9.162;2023-07-31T04:31:44;16.70;93.10
6948;DHT22;3513;47.664;9.162;2023-07-31T04:34:10;16.60;92.80
6948;DHT22;3513;47.664;9.162;2023-07-31T04:36:36;16.60;92.90
6948;DHT22;3513;47.664;9.162;2023-07-31T04:39:02;16.60;92.80
6948;DHT22;3513;47.664;9.162;2023-07-31T04:41:28;16.60;92.70
6948;DHT22;3513;47.664;9.162;2023-07-31T04:43:53;16.60;92.70
6948;DHT22;3513;47.664;9.162;2023-07-31T04:46:19;16.60;92.60
6948;DHT22;3513;47.664;9.162;2023-07-31T04:48:44;16.70;92.60
6948;DHT22;3513;47.664;9.162;2023-07-31T04:51:10;16.70;92.40
6948;DHT22;3513;47.664;9.162;2023-07-31T04:53:36;16.70;92.20
6948;DHT22;3513;47.664;9.162;2023-07-31T04:56:02;16.70;92.30
6948;DHT22;3513;47.664;9.162;2023-07-31T04:58:28;16.80;92.10
6948;DHT22;3513;47.664;9.162;2023-07-31T05:00:53;16.90;92.00
6948;DHT22;3513;47.664;9.162;2023-07-31T05:03:19;16.90;91.90
6948;DHT22;3513;47.664;9.162;2023-07-31T05:05:44;17.00;92.10
6948;DHT22;3513;47.664;9.162;2023-07-31T05:08:10;17.10;91.80
6948;DHT22;3513;47.664;9.162;2023-07-31T05:10:35;17.10;91.40
6948;DHT22;3513;47.664;9.162;2023-07-31T05:13:01;17.20;91.40
6948;DHT22;3513;47.664;9.162;2023-07-31T05:15:26;17.20;91.20
6948;DHT22;3513;47.664;9.162;2023-07-31T05:17:52;17.30;91.30
6948;DHT22;3513;47.664;9.162;2023-07-31T05:20:18;17.40;91.00
6948;DHT22;3513;47.664;9.162;2023-07-31T05:22:43;17.50;90.60
6948;DHT22;3513;47.664;9.162;2023-07-31T05:25:09;17.50;90.60
6948;DHT22;3513;47.664;9.162;2023-07-31T05:27:34;17.50;90.60
6948;DHT22;3513;47.664;9.162;2023-07-31T05:30:00;17.60;90.80
6948;DHT22;3513;47.664;9.162;2023-07-31T05:32:26;17.50;90.80
6948;DHT22;3513;47.664;9.162;2023-07-31T05:34:52;17.50;91.40
6948;DHT22;3513;47.664;9.162;2023-07-31T05:37:18;17.50;91.70
6948;DHT22;3513;47.664;9.162;2023-07-31T05:39:43;17.50;91.60
6948;DHT22;3513;47.664;9.162;2023-07-31T05:42:09;17.60;91.70
6948;DHT22;3513;47.664;9.162;2023-07-31T05:44:34;17.50;91.70
6948;DHT22;3513;47.664;9.162;2023-07-31T05:47:00;17.50;91.70
6948;DHT22;3513;47.664;9.162;2023-07-31T05:49:26;17.50;92.10
6948;DHT22;3513;47.664;9.162;2023-07-31T05:51:51;17.50;92.10
6948;DHT22;3513;47.664;9.162;2023-07-31T05:54:17;17.50;92.00
6948;DHT22;3513;47.664;9.162;2023-07-31T05:56:42;17.50;92.20
6948;DHT22;3513;47.664;9.162;2023-07-31T05:59:09;17.50;92.20
6948;DHT22;3513;47.664;9.162;2023-07-31T06:01:35;17.50;91.70
6948;DHT22;3513;47.664;9.162;2023-07-31T06:04:01;17.50;92.00
6948;DHT22;3513;47.664;9.162;2023-07-31T06:06:28;17.50;92.00
6948;DHT22;3513;47.664;9.162;2023-07-31T06:08:53;17.50;91.90
6948;DHT22;3513;47.664;9.162;2023-07-31T06:11:20;17.60;91.60
6948;DHT22;3513;47.664;9.162;2023-07-31T06:13:46;17.50;91.70
6948;DHT22;3513;47.664;9.162;2023-07-31T06:16:13;17.60;91.60
6948;DHT22;3513;47.664;9.162;2023-07-31T06:18:39;17.60;91.70
6948;DHT22;3513;47.664;9.162;2023-07-31T06:21:05;17.50;92.00
6948;DHT22;3513;47.664;9.162;2023-07-31T06:23:30;17.50;92.00
6948;DHT22;3513;47.664;9.162;2023-07-31T06:25:56;17.60;91.90
6948;DHT22;3513;47.664;9.162;2023-07-31T06:28:29;17.60;91.90
6948;DHT22;3513;47.664;9.162;2023-07-31T06:30:56;17.60;92.10
6948;DHT22;3513;47.664;9.162;2023-07-31T06:33:21;17.70;91.60
6948;DHT22;3513;47.664;9.162;2023-07-31T06:35:47;17.70;91.70
6948;DHT22;3513;47.664;9.162;2023-07-31T06:38:12;17.80;91.60
6948;DHT22;3513;47.664;9.162;2023-07-31T06:40:38;17.80;91.20
6948;DHT22;3513;47.664;9.162;2023-07-31T06:43:03;17.90;91.10
6948;DHT22;3513;47.664;9.162;2023-07-31T06:45:36;18.00;90.70
6948;DHT22;3513;47.664;9.162;2023-07-31T06:48:02;17.90;90.90
6948;DHT22;3513;47.664;9.162;2023-07-31T06:50:29;18.00;91.20
6948;DHT22;3513;47.664;9.162;2023-07-31T06:52:55;18.00;91.30
6948;DHT22;3513;47.664;9.162;2023-07-31T06:55:21;18.10;91.10
6948;DHT22;3513;47.664;9.162;2023-07-31T06:57:48;18.10;90.90
6948;DHT22;3513;47.664;9.162;2023-07-31T07:00:14;18.10;90.90
6948;DHT22;3513;47.664;9.162;2023-07-31T07:02:39;18.20;90.70
6948;DHT22;3513;47.664;9.162;2023-07-31T07:05:06;18.20;90.60
6948;DHT22;3513;47.664;9.162;2023-07-31T07:07:32;18.30;89.60
6948;DHT22;3513;47.664;9.162;2023-07-31T07:09:58;18.30;88.80
6948;DHT22;3513;47.664;9.162;2023-07-31T07:12:25;18.40;87.80
6948;DHT22;3513;47.664;9.162;2023-07-31T07:14:51;18.40;89.80
6948;DHT22;3513;47.664;9.162;2023-07-31T07:17:18;18.40;89.10
6948;DHT22;3513;47.664;9.162;2023-07-31T07:19:44;18.60;87.80
6948;DHT22;3513;47.664;9.162;2023-07-31T07:22:11;18.70;87.80
6948;DHT22;3513;47.664;9.162;2023-07-31T07:24:37;18.80;88.10
6948;DHT22;3513;47.664;9.162;2023-07-31T07:27:02;18.90;88.40
6948;DHT22;3513;47.664;9.162;2023-07-31T07:29:28;19.10;87.70
6948;DHT22;3513;47.664;9.162;2023-07-31T07:31:53;19.20;87.40
6948;DHT22;3513;47.664;9.162;2023-07-31T07:34:19;19.30;84.50
6948;DHT22;3513;47.664;9.162;2023-07-31T07:36:45;19.20;83.20
6948;DHT22;3513;47.664;9.162;2023-07-31T07:39:10;19.20;84.10
6948;DHT22;3513;47.664;9.162;2023-07-31T07:41:36;19.20;85.00
6948;DHT22;3513;47.664;9.162;2023-07-31T07:44:02;19.20;83.30
6948;DHT22;3513;47.664;9.162;2023-07-31T07:46:27;19.30;83.40
6948;DHT22;3513;47.664;9.162;2023-07-31T07:48:53;19.40;83.00
6948;DHT22;3513;47.664;9.162;2023-07-31T07:51:19;19.30;82.20
6948;DHT22;3513;47.664;9.162;2023-07-31T07:53:44;19.40;83.20
6948;DHT22;3513;47.664;9.162;2023-07-31T07:56:10;19.40;83.90
6948;DHT22;3513;47.664;9.162;2023-07-31T07:58:35;19.40;83.40
6948;DHT22;3513;47.664;9.162;2023-07-31T08:01:01;19.40;80.90
6948;DHT22;3513;47.664;9.162;2023-07-31T08:03:27;19.40;81.70
6948;DHT22;3513;47.664;9.162;2023-07-31T08:05:52;19.40;81.10
6948;DHT22;3513;47.664;9.162;2023-07-31T08:08:18;19.50;81.90
6948;DHT22;3513;47.664;9.162;2023-07-31T08:10:46;19.50;81.60
6948;DHT22;3513;47.664;9.162;2023-07-31T08:13:11;19.60;83.10
6948;DHT22;3513;47.664;9.162;2023-07-31T08:15:37;19.70;80.90
6948;DHT22;3513;47.664;9.162;2023-07-31T08:18:03;19.70;79.90
6948;DHT22;3513;47.664;9.162;2023-07-31T08:20:28;19.70;79.70
6948;DHT22;3513;47.664;9.162;2023-07-31T08:22:54;19.70;78.10
6948;DHT22;3513;47.664;9.162;2023-07-31T08:25:20;19.80;80.20
6948;DHT22;3513;47.664;9.162;2023-07-31T08:27:45;19.90;77.50
6948;DHT22;3513;47.664;9.162;2023-07-31T08:30:12;20.00;77.00
6948;DHT22;3513;47.664;9.162;2023-07-31T08:32:37;19.90;77.70
6948;DHT22;3513;47.664;9.162;2023-07-31T08:35:03;19.90;79.20
6948;DHT22;3513;47.664;9.162;2023-07-31T08:37:29;19.90;77.20
6948;DHT22;3513;47.664;9.162;2023-07-31T08:39:55;20.00;78.80
6948;DHT22;3513;47.664;9.162;2023-07-31T08:42:20;20.10;79.20
6948;DHT22;3513;47.664;9.162;2023-07-31T08:44:46;20.10;80.70
6948;DHT22;3513;47.664;9.162;2023-07-31T08:47:13;20.10;80.10
6948;DHT22;3513;47.664;9.162;2023-07-31T08:49:39;20.00;78.70
6948;DHT22;3513;47.664;9.162;2023-07-31T08:52:06;19.90;79.00
6948;DHT22;3513;47.664;9.162;2023-07-31T08:54:32;19.90;79.90
6948;DHT22;3513;47.664;9.162;2023-07-31T08:56:59;19.90;80.10
6948;DHT22;3513;47.664;9.162;2023-07-31T08:59:29;19.90;80.80
6948;DHT22;3513;47.664;9.162;2023-07-31T09:01:58;20.00;80.50
6948;DHT22;3513;47.664;9.162;2023-07-31T09:04:28;20.00;79.90
6948;DHT22;3513;47.664;9.162;2023-07-31T09:06:59;20.00;79.70
6948;DHT22;3513;47.664;9.162;2023-07-31T09:09:25;20.00;80.10
6948;DHT22;3513;47.664;9.162;2023-07-31T09:11:51;20.00;81.50
6948;DHT22;3513;47.664;9.162;2023-07-31T09:14:18;20.00;80.10
6948;DHT22;3513;47.664;9.162;2023-07-31T09:16:57;19.90;80.90
6948;DHT22;3513;47.664;9.162;2023-07-31T09:19:36;20.10;76.90
6948;DHT22;3513;47.664;9.162;2023-07-31T09:22:04;20.30;77.00
6948;DHT22;3513;47.664;9.162;2023-07-31T09:24:31;20.50;76.90
6948;DHT22;3513;47.664;9.162;2023-07-31T09:26:59;20.60;75.70
6948;DHT22;3513;47.664;9.162;2023-07-31T09:29:26;20.70;73.80
6948;DHT22;3513;47.664;9.162;2023-07-31T09:31:53;20.80;73.70
6948;DHT22;3513;47.664;9.162;2023-07-31T09:34:19;20.80;72.20
6948;DHT22;3513;47.664;9.162;2023-07-31T09:36:47;20.90;73.80
6948;DHT22;3513;47.664;9.162;2023-07-31T09:39:14;20.90;72.30
6948;DHT22;3513;47.664;9.162;2023-07-31T09:41:53;21.00;73.60
6948;DHT22;3513;47.664;9.162;2023-07-31T09:44:19;21.10;74.00
6948;DHT22;3513;47.664;9.162;2023-07-31T09:46:45;21.10;71.70
6948;DHT22;3513;47.664;9.162;2023-07-31T09:49:12;21.10;72.10
6948;DHT22;3513;47.664;9.162;2023-07-31T09:51:42;21.10;72.30
6948;DHT22;3513;47.664;9.162;2023-07-31T09:54:11;21.20;72.10
6948;DHT22;3513;47.664;9.162;2023-07-31T09:56:45;21.20;73.00
6948;DHT22;3513;47.664;9.162;2023-07-31T09:59:18;21.30;70.60
6948;DHT22;3513;47.664;9.162;2023-07-31T10:01:45;21.40;73.40
6948;DHT22;3513;47.664;9.162;2023-07-31T10:04:12;21.50;71.90
6948;DHT22;3513;47.664;9.162;2023-07-31T10:06:39;21.50;69.00
6948;DHT22;3513;47.664;9.162;2023-07-31T10:09:08;21.40;69.90
6948;DHT22;3513;47.664;9.162;2023-07-31T10:11:41;21.50;69.50
6948;DHT22;3513;47.664;9.162;2023-07-31T10:14:09;21.60;71.10
6948;DHT22;3513;47.664;9.162;2023-07-31T10:16:38;21.60;67.90
6948;DHT22;3513;47.664;9.162;2023-07-31T10:19:05;21.50;68.80
6948;DHT22;3513;47.664;9.162;2023-07-31T10:21:31;21.70;69.90
6948;DHT22;3513;47.664;9.162;2023-07-31T10:24:02;21.50;66.20
6948;DHT22;3513;47.664;9.162;2023-07-31T10:26:29;21.90;66.30
6948;DHT22;3513;47.664;9.162;2023-07-31T10:28:56;21.80;66.00
6948;DHT22;3513;47.664;9.162;2023-07-31T10:31:23;21.90;66.40
6948;DHT22;3513;47.664;9.162;2023-07-31T10:33:49;22.00;67.60
6948;DHT22;3513;47.664;9.162;2023-07-31T10:36:19;22.00;67.10
6948;DHT22;3513;47.664;9.162;2023-07-31T10:38:46;22.10;67.00
6948;DHT22;3513;47.664;9.162;2023-07-31T10:41:14;21.80;65.10
6948;DHT22;3513;47.664;9.162;2023-07-31T10:43:40;22.20;68.20
6948;DHT22;3513;47.664;9.162;2023-07-31T10:46:13;22.20;67.10
6948;DHT22;3513;47.664;9.162;2023-07-31T10:48:40;22.40;67.90
6948;DHT22;3513;47.664;9.162;2023-07-31T10:51:11;22.40;65.00
6948;DHT22;3513;47.664;9.162;2023-07-31T10:53:38;22.40;65.80
6948;DHT22;3513;47.664;9.162;2023-07-31T10:56:05;22.50;66.60
6948;DHT22;3513;47.664;9.162;2023-07-31T10:58:32;22.60;68.30
6948;DHT22;3513;47.664;9.162;2023-07-31T11:00:59;22.70;64.20
6948;DHT22;3513;47.664;9.162;2023-07-31T11:03:26;22.70;61.50
6948;DHT22;3513;47.664;9.162;2023-07-31T11:05:56;22.60;64.50
6948;DHT22;3513;47.664;9.162;2023-07-31T11:08:26;22.70;63.30
6948;DHT22;3513;47.664;9.162;2023-07-31T11:11:06;22.80;65.50
6948;DHT22;3513;47.664;9.162;2023-07-31T11:16:09;23.00;60.50
6948;DHT22;3513;47.664;9.162;2023-07-31T11:18:35;23.10;62.00
6948;DHT22;3513;47.664;9.162;2023-07-31T11:21:00;23.20;60.10
6948;DHT22;3513;47.664;9.162;2023-07-31T11:23:26;23.40;59.90
6948;DHT22;3513;47.664;9.162;2023-07-31T11:25:52;23.40;61.50
6948;DHT22;3513;47.664;9.162;2023-07-31T11:28:19;23.60;60.50
6948;DHT22;3513;47.664;9.162;2023-07-31T11:30:46;23.50;57.50
6948;DHT22;3513;47.664;9.162;2023-07-31T11:33:13;23.30;57.80
6948;DHT22;3513;47.664;9.162;2023-07-31T11:35:44;23.20;59.10
6948;DHT22;3513;47.664;9.162;2023-07-31T11:38:34;23.10;58.80
6948;DHT22;3513;47.664;9.162;2023-07-31T11:41:02;23.00;60.00
6948;DHT22;3513;47.664;9.162;2023-07-31T11:43:28;23.10;59.60
6948;DHT22;3513;47.664;9.162;2023-07-31T11:45:57;23.20;61.00
6948;DHT22;3513;47.664;9.162;2023-07-31T11:48:27;23.20;59.90
6948;DHT22;3513;47.664;9.162;2023-07-31T11:50:57;23.20;59.40
6948;DHT22;3513;47.664;9.162;2023-07-31T11:53:33;23.10;60.00
6948;DHT22;3513;47.664;9.162;2023-07-31T11:56:01;23.10;58.10
6948;DHT22;3513;47.664;9.162;2023-07-31T11:58:29;23.10;58.10
6948;DHT22;3513;47.664;9.162;2023-07-31T12:00:55;22.90;58.20
6948;DHT22;3513;47.664;9.162;2023-07-31T12:03:21;22.80;58.80
6948;DHT22;3513;47.664;9.162;2023-07-31T12:05:47;22.90;58.90
6948;DHT22;3513;47.664;9.162;2023-07-31T12:08:13;23.10;58.90
6948;DHT22;3513;47.664;9.162;2023-07-31T12:10:39;23.20;58.30
6948;DHT22;3513;47.664;9.162;2023-07-31T12:13:11;23.20;58.20
6948;DHT22;3513;47.664;9.162;2023-07-31T12:15:40;23.20;57.90
6948;DHT22;3513;47.664;9.162;2023-07-31T12:18:09;23.30;58.40
6948;DHT22;3513;47.664;9.162;2023-07-31T12:20:34;23.40;59.10
6948;DHT22;3513;47.664;9.162;2023-07-31T12:23:01;23.50;57.70
6948;DHT22;3513;47.664;9.162;2023-07-31T12:25:33;23.70;58.40
6948;DHT22;3513;47.664;9.162;2023-07-31T12:28:05;23.80;59.00
6948;DHT22;3513;47.664;9.162;2023-07-31T12:30:34;23.80;57.80
6948;DHT22;3513;47.664;9.162;2023-07-31T12:33:13;23.70;57.70
6948;DHT22;3513;47.664;9.162;2023-07-31T12:35:46;24.00;58.10
6948;DHT22;3513;47.664;9.162;2023-07-31T12:38:13;24.30;57.20
6948;DHT22;3513;47.664;9.162;2023-07-31T12:40:40;24.70;56.20
6948;DHT22;3513;47.664;9.162;2023-07-31T12:43:06;24.80;50.30
6948;DHT22;3513;47.664;9.162;2023-07-31T12:45:32;24.70;50.30
6948;DHT22;3513;47.664;9.162;2023-07-31T12:48:01;24.60;51.00
6948;DHT22;3513;47.664;9.162;2023-07-31T12:50:26;24.60;54.30
6948;DHT22;3513;47.664;9.162;2023-07-31T12:52:56;24.70;54.30
6948;DHT22;3513;47.664;9.162;2023-07-31T12:55:22;24.70;54.20
6948;DHT22;3513;47.664;9.162;2023-07-31T12:57:49;24.80;54.20
6948;DHT22;3513;47.664;9.162;2023-07-31T13:00:15;24.80;52.80
6948;DHT22;3513;47.664;9.162;2023-07-31T13:02:41;24.80;51.80
6948;DHT22;3513;47.664;9.162;2023-07-31T13:05:07;24.80;51.50
6948;DHT22;3513;47.664;9.162;2023-07-31T13:07:32;25.10;52.30
6948;DHT22;3513;47.664;9.162;2023-07-31T13:09:58;25.80;52.60
6948;DHT22;3513;47.664;9.162;2023-07-31T13:12:23;26.20;52.10
6948;DHT22;3513;47.664;9.162;2023-07-31T13:14:50;26.10;51.30
6948;DHT22;3513;47.664;9.162;2023-07-31T13:17:16;25.70;51.90
6948;DHT22;3513;47.664;9.162;2023-07-31T13:19:42;25.60;51.40
6948;DHT22;3513;47.664;9.162;2023-07-31T13:22:08;25.50;52.10
6948;DHT22;3513;47.664;9.162;2023-07-31T13:24:33;25.50;52.30
6948;DHT22;3513;47.664;9.162;2023-07-31T13:26:59;25.40;51.90
6948;DHT22;3513;47.664;9.162;2023-07-31T13:29:25;25.30;52.30
6948;DHT22;3513;47.664;9.162;2023-07-31T13:31:51;25.30;53.70
6948;DHT22;3513;47.664;9.162;2023-07-31T13:34:17;25.40;53.80
6948;DHT22;3513;47.664;9.162;2023-07-31T13:36:42;25.40;53.10
6948;DHT22;3513;47.664;9.162;2023-07-31T13:39:08;25.70;53.80
6948;DHT22;3513;47.664;9.162;2023-07-31T13:41:34;26.00;52.30
6948;DHT22;3513;47.664;9.162;2023-07-31T13:43:59;26.30;52.20
6948;DHT22;3513;47.664;9.162;2023-07-31T13:46:25;26.60;51.80
6948;DHT22;3513;47.664;9.162;2023-07-31T13:48:51;27.00;51.80
6948;DHT22;3513;47.664;9.162;2023-07-31T13:51:20;27.50;51.00
6948;DHT22;3513;47.664;9.162;2023-07-31T13:53:45;28.00;49.40
6948;DHT22;3513;47.664;9.162;2023-07-31T13:56:11;28.20;47.90
6948;DHT22;3513;47.664;9.162;2023-07-31T13:58:36;28.30;48.20
6948;DHT22;3513;47.664;9.162;2023-07-31T14:01:02;28.30;46.80
6948;DHT22;3513;47.664;9.162;2023-07-31T14:03:28;28.40;46.90
6948;DHT22;3513;47.664;9.162;2023-07-31T14:05:55;28.40;45.40
6948;DHT22;3513;47.664;9.162;2023-07-31T14:08:21;28.50;45.30
6948;DHT22;3513;47.664;9.162;2023-07-31T14:10:46;28.50;45.60
6948;DHT22;3513;47.664;9.162;2023-07-31T14:13:12;28.40;45.50
6948;DHT22;3513;47.664;9.162;2023-07-31T14:15:38;28.20;45.20
6948;DHT22;3513;47.664;9.162;2023-07-31T14:18:03;28.20;44.90
6948;DHT22;3513;47.664;9.162;2023-07-31T14:20:29;28.40;44.30
6948;DHT22;3513;47.664;9.162;2023-07-31T14:22:55;28.60;43.50
6948;DHT22;3513;47.664;9.162;2023-07-31T14:25:21;28.50;43.50
6948;DHT22;3513;47.664;9.162;2023-07-31T14:27:46;28.70;45.10
6948;DHT22;3513;47.664;9.162;2023-07-31T14:30:12;29.00;45.30
6948;DHT22;3513;47.664;9.162;2023-07-31T14:32:37;29.40;43.80
6948;DHT22;3513;47.664;9.162;2023-07-31T14:35:03;29.20;44.50
6948;DHT22;3513;47.664;9.162;2023-07-31T14:37:40;29.40;44.70
6948;DHT22;3513;47.664;9.162;2023-07-31T14:40:08;29.40;43.70
6948;DHT22;3513;47.664;9.162;2023-07-31T14:42:34;29.00;43.40
6948;DHT22;3513;47.664;9.162;2023-07-31T14:45:01;28.60;45.30
6948;DHT22;3513;47.664;9.162;2023-07-31T14:47:26;28.30;45.10
6948;DHT22;3513;47.664;9.162;2023-07-31T14:49:52;28.10;45.60
6948;DHT22;3513;47.664;9.162;2023-07-31T14:52:17;28.00;45.60
6948;DHT22;3513;47.664;9.162;2023-07-31T14:54:43;28.20;45.80
6948;DHT22;3513;47.664;9.162;2023-07-31T14:57:09;28.30;45.40
6948;DHT22;3513;47.664;9.162;2023-07-31T14:59:34;28.40;45.50
6948;DHT22;3513;47.664;9.162;2023-07-31T15:02:00;28.50;46.00
6948;DHT22;3513;47.664;9.162;2023-07-31T15:04:25;28.50;46.00
6948;DHT22;3513;47.664;9.162;2023-07-31T15:06:52;28.40;46.90
6948;DHT22;3513;47.664;9.162;2023-07-31T15:09:18;28.50;46.10
6948;DHT22;3513;47.664;9.162;2023-07-31T15:11:43;28.40;46.60
6948;DHT22;3513;47.664;9.162;2023-07-31T15:14:09;28.10;46.50
6948;DHT22;3513;47.664;9.162;2023-07-31T15:16:34;27.90;47.80
6948;DHT22;3513;47.664;9.162;2023-07-31T15:19:00;27.70;48.10
6948;DHT22;3513;47.664;9.162;2023-07-31T15:21:26;27.50;48.40
6948;DHT22;3513;47.664;9.162;2023-07-31T15:23:52;27.50;48.00
6948;DHT22;3513;47.664;9.162;2023-07-31T15:26:17;27.30;48.50
6948;DHT22;3513;47.664;9.162;2023-07-31T15:28:49;27.10;48.20
6948;DHT22;3513;47.664;9.162;2023-07-31T15:31:14;27.20;48.80
6948;DHT22;3513;47.664;9.162;2023-07-31T15:33:40;27.30;48.40
6948;DHT22;3513;47.664;9.162;2023-07-31T15:36:06;27.40;49.40
6948;DHT22;3513;47.664;9.162;2023-07-31T15:38:32;27.60;49.70
6948;DHT22;3513;47.664;9.162;2023-07-31T15:40:57;27.60;48.20
6948;DHT22;3513;47.664;9.162;2023-07-31T15:43:23;27.50;47.50
6948;DHT22;3513;47.664;9.162;2023-07-31T15:45:49;27.50;48.20
6948;DHT22;3513;47.664;9.162;2023-07-31T15:48:14;27.50;47.50
6948;DHT22;3513;47.664;9.162;2023-07-31T15:50:40;27.60;47.90
6948;DHT22;3513;47.664;9.162;2023-07-31T15:53:06;27.80;46.90
6948;DHT22;3513;47.664;9.162;2023-07-31T15:55:31;28.00;47.80
6948;DHT22;3513;47.664;9.162;2023-07-31T15:57:57;28.20;46.30
6948;DHT22;3513;47.664;9.162;2023-07-31T16:00:22;28.50;46.50
6948;DHT22;3513;47.664;9.162;2023-07-31T16:02:48;28.90;45.80
6948;DHT22;3513;47.664;9.162;2023-07-31T16:05:14;29.00;46.10